Bakersfield, CA

6:45 PM PDT on October 22, 2014 (GMT -0700)
Meadows | Change Station
CLOSE
Current Station
Airport
Location: Bakersfield,
Elevation: 492 ft
Nearby Weather Stations

Elev 492 ft 35.43 °N, 119.05 °W | Updated 51 minutes ago

Clear
Clear
73 °F
Feels Like 73 °F
N
6
Wind Variable Wind from WNW

Today
High -- | Low -- °F
--% Chance of Precip.
Yesterday
High -- | Low -- °F
Precip. -- in
7:08 AM 6:12 PM
Waning Crescent, 1% visible
Pressure 29.99 in
Visibility 10.0 miles
Clouds Clear
Dew Point 46 °F
Humidity 38%
Rainfall 0.00 in
Snow Depth Not available.
UV 0 out of 12
Pollen 3.90 out of 12
Ozone Good
PM2.5 Good
Flu Activity Sporadic
METAR KBFL 230054Z 29005KT 10SM CLR 23/08 A3000 RMK AO2 SLP155 T02280078

More Conditions Fewer Conditions

Pressure 29.99 in
Visibility 10.0 miles
Clouds Clear
Dew Point 46 °F
Humidity 38%
Rainfall 0.00 in
Snow Depth Not available.
UV 0 out of 12
Pollen 3.90 out of 12
Ozone Good
PM2.5 Good
Flu Activity Sporadic
METAR KBFL 230054Z 29005KT 10SM CLR 23/08 A3000 RMK AO2 SLP155 T02280078

More Conditions Fewer Conditions

10-Day Weather Forecast

Almanac

Astronomy

Oct. 22, 2014 Rise Set
Actual Time 7:08 AM PDT 6:12 PM PDT
Civil Twilight 6:42 AM PDT 6:37 PM PDT
Nautical Twilight 6:13 AM PDT 7:07 PM PDT
Astronomical Twilight 5:43 AM PDT 7:37 PM PDT
Moon 5:57 AM PDT (10/22) 5:39 PM PDT (10/22)
Length of Visible Light 11h 55m
Length of Day
11h 03m
Tomorrow will be 2m 5s shorter.
Waning Crescent, 1% of the Moon is Illuminated
Today
Waning Crescent
Oct 23
New
Oct 30
First Quarter
Nov 6
Full
Nov 14
Last Quarter

Today's Extremes

State Highs State Lows

Community

WunderPhotos

Upload Photos

1,764,108 photos uploaded!

Nearby

Air Quality

  Air Quality AQ Index Pollutant
Yesterday Good
OZONE
Yesterday Good
PM2.5
Current Good
OZONE
Current Good
PM2.5
Wednesday Moderate
PM10
Thursday Moderate
PM10
Friday Moderate
PM10
Saturday Moderate
PM10
Sunday Moderate
PM10
Monday Moderate
PM10

Snow Depth

Station Depth Elevation
Leavitt Lake 0 in 9400 ft
Leavitt Meadows 0 in 7200 ft
Summit Meadow 0 in 9122 ft
Ward Creek #3 0 in 6750 ft
Tahoe City Cross 0 in 6750 ft

Earthquake Activity

City Distance Mag. Time & Date
Solvang, California 94 miles 2.6 5:35 PM PDT
2014-10-22
Kettleman City, California 50 miles 2.5 9:08 AM PDT
2014-10-22
Minimum magnitude displayed is 2.5.

Coastal Water Temperatures

Place Temperature
No Stations Reporting

Nearby Weather Stations